createdAt,value
2018-09-14T00:02:01.274Z,13.00
2018-09-14T00:04:35.854Z,15.75
2018-09-14T00:07:07.300Z,14.75
2018-09-14T00:09:36.770Z,15.75
2018-09-14T00:12:06.251Z,13.50
2018-09-14T00:14:36.256Z,15.50
2018-09-14T00:17:08.521Z,13.00
2018-09-14T00:19:38.508Z,14.25
2018-09-14T00:22:08.146Z,12.75
2018-09-14T00:24:38.255Z,15.25
2018-09-14T00:27:07.586Z,14.75
2018-09-14T00:29:37.309Z,16.25
2018-09-14T00:32:07.792Z,15.50
2018-09-14T00:34:37.629Z,16.50
2018-09-14T00:37:08.770Z,14.75
2018-09-14T00:39:40.260Z,14.25
2018-09-14T00:42:12.544Z,15.00
2018-09-14T00:53:14.081Z,16.75
2018-09-14T00:55:43.972Z,15.75
2018-09-14T00:58:13.820Z,15.50
2018-09-14T01:00:46.945Z,16.25
2018-09-14T01:03:18.498Z,15.50
2018-09-14T01:05:47.817Z,16.00
2018-09-14T01:08:17.215Z,15.50
2018-09-14T01:10:46.503Z,15.75
2018-09-14T01:13:16.451Z,14.75
2018-09-14T01:15:46.677Z,15.00
2018-09-14T01:18:17.144Z,15.00
2018-09-14T01:20:46.668Z,15.50
2018-09-14T01:23:16.019Z,13.75
2018-09-14T01:25:46.993Z,17.25
2018-09-14T01:28:16.673Z,15.75
2018-09-14T01:30:46.471Z,15.00
2018-09-14T01:33:15.980Z,15.25
2018-09-14T01:35:50.425Z,15.00
2018-09-14T01:38:19.866Z,17.75
2018-09-14T01:40:49.301Z,17.25
2018-09-14T01:43:19.005Z,15.50
2018-09-14T01:45:50.994Z,18.00
2018-09-14T01:48:20.471Z,17.75
2018-09-14T01:50:49.964Z,17.75
2018-09-14T01:53:19.530Z,16.75
2018-09-14T01:55:49.361Z,13.25
2018-09-14T01:58:19.300Z,17.75
2018-09-14T02:00:49.110Z,17.25
2018-09-14T02:03:18.763Z,19.00
2018-09-14T02:05:49.123Z,16.25
2018-09-14T02:08:18.602Z,15.50
2018-09-14T02:10:52.844Z,15.50
2018-09-14T02:13:23.420Z,15.50
2018-09-14T02:15:53.091Z,16.00
2018-09-14T02:18:22.577Z,16.00
2018-09-14T02:20:51.867Z,15.50
2018-09-14T02:23:21.697Z,16.00
2018-09-14T02:25:56.687Z,18.50
2018-09-14T02:28:31.315Z,14.25
2018-09-14T02:31:01.263Z,15.50
2018-09-14T02:33:30.913Z,17.75
2018-09-14T02:36:00.469Z,13.75
2018-09-14T02:38:29.998Z,15.75
2018-09-14T02:40:59.576Z,15.00
2018-09-14T02:43:29.317Z,15.75
2018-09-14T02:45:59.110Z,16.00
2018-09-14T02:48:28.822Z,15.00
2018-09-14T02:50:58.193Z,16.75
2018-09-14T02:53:27.757Z,15.75
2018-09-14T02:55:57.379Z,17.50
2018-09-14T02:58:28.631Z,15.75
2018-09-14T03:00:59.627Z,17.25
2018-09-14T03:03:29.729Z,16.75
2018-09-14T03:06:00.694Z,15.00
2018-09-14T03:08:30.625Z,15.00
2018-09-14T03:11:00.292Z,16.75
2018-09-14T03:13:30.565Z,15.75
2018-09-14T03:16:00.305Z,16.75
2018-09-14T03:18:29.885Z,17.50
2018-09-14T03:20:59.733Z,14.75
2018-09-14T03:23:30.319Z,15.75
2018-09-14T03:25:59.791Z,15.50
2018-09-14T03:28:29.467Z,16.75
2018-09-14T03:33:34.673Z,16.75
2018-09-14T03:36:07.930Z,17.25
2018-09-14T03:38:37.602Z,16.25
2018-09-14T03:41:07.005Z,15.75
2018-09-14T03:43:36.705Z,16.50
2018-09-14T03:46:06.444Z,14.75
2018-09-14T03:48:35.901Z,17.00
2018-09-14T03:51:05.747Z,16.75
2018-09-14T03:53:36.054Z,16.25
2018-09-14T03:56:05.993Z,14.00
2018-09-14T03:58:35.681Z,14.75
2018-09-14T04:01:07.736Z,14.00
2018-09-14T04:03:37.314Z,14.00
2018-09-14T04:06:07.228Z,14.75
2018-09-14T04:08:36.742Z,14.00
2018-09-14T04:11:06.439Z,15.25
2018-09-14T04:13:36.402Z,13.75
2018-09-14T04:16:06.145Z,13.75
2018-09-14T04:18:36.227Z,16.25
2018-09-14T04:21:06.641Z,14.00
2018-09-14T04:23:36.102Z,15.25
2018-09-14T04:26:05.633Z,17.00
2018-09-14T04:28:36.916Z,14.00
2018-09-14T04:31:06.590Z,14.50
2018-09-14T04:33:37.659Z,16.75
2018-09-14T04:36:07.428Z,16.25
2018-09-14T04:38:36.756Z,15.75
2018-09-14T04:41:06.391Z,16.00
2018-09-14T04:43:36.908Z,17.00
2018-09-14T04:46:06.821Z,15.50
2018-09-14T04:48:37.635Z,14.00
2018-09-14T04:51:07.626Z,18.25
2018-09-14T04:53:37.530Z,16.75
2018-09-14T04:56:09.915Z,17.25
2018-09-14T04:58:40.208Z,17.00
2018-09-14T05:01:10.296Z,19.75
2018-09-14T05:03:39.828Z,16.25
2018-09-14T05:06:10.332Z,18.50
2018-09-14T05:08:39.900Z,16.00
2018-09-14T05:11:09.425Z,19.75
2018-09-14T05:13:40.661Z,15.00
2018-09-14T05:16:15.574Z,18.75
2018-09-14T05:18:45.132Z,20.00
2018-09-14T05:21:15.142Z,20.00
2018-09-14T05:23:44.540Z,20.75
2018-09-14T05:26:15.394Z,18.50
2018-09-14T05:28:45.265Z,22.25
2018-09-14T05:31:15.845Z,19.50
2018-09-14T05:33:46.397Z,20.00
2018-09-14T05:36:18.490Z,19.75
2018-09-14T05:38:50.276Z,19.00
2018-09-14T05:41:20.911Z,22.75
2018-09-14T05:43:53.213Z,21.00
2018-09-14T05:46:23.876Z,19.75
2018-09-14T05:48:55.227Z,20.75
2018-09-14T05:51:25.879Z,21.25
2018-09-14T05:53:56.216Z,19.00
2018-09-14T05:59:03.769Z,22.50
2018-09-14T06:01:35.329Z,22.00
2018-09-14T06:04:06.744Z,25.00
2018-09-14T06:06:37.015Z,26.50
2018-09-14T06:09:11.248Z,22.50
2018-09-14T06:11:46.216Z,24.25
2018-09-14T06:14:16.686Z,24.75
2018-09-14T06:16:46.352Z,26.50
2018-09-14T06:19:16.828Z,22.75
2018-09-14T06:21:49.284Z,24.00
2018-09-14T06:24:20.103Z,25.25
2018-09-14T06:26:49.551Z,25.25
2018-09-14T06:29:26.275Z,23.50
2018-09-14T06:31:56.116Z,24.00
2018-09-14T06:34:25.830Z,20.25
2018-09-14T06:36:56.188Z,19.75
2018-09-14T06:39:26.567Z,23.75
2018-09-14T06:41:56.534Z,23.25
2018-09-14T06:44:26.128Z,22.00
2018-09-14T06:46:57.234Z,22.00
2018-09-14T06:49:28.692Z,22.25
2018-09-14T06:52:17.432Z,25.25
2018-09-14T06:54:47.350Z,23.00
2018-09-14T06:57:17.063Z,23.75
2018-09-14T06:59:47.863Z,23.25
2018-09-14T07:02:20.451Z,22.50
2018-09-14T07:04:55.966Z,24.25
2018-09-14T07:07:26.823Z,20.75
2018-09-14T07:10:12.862Z,25.00
2018-09-14T07:12:43.592Z,23.50
2018-09-14T07:15:19.597Z,22.50
2018-09-14T07:18:00.083Z,24.75
2018-09-14T07:20:30.336Z,23.25
2018-09-14T07:23:00.666Z,21.75
2018-09-14T07:25:30.459Z,23.25
2018-09-14T07:28:01.495Z,23.75
2018-09-14T07:30:41.219Z,25.25
2018-09-14T07:33:11.475Z,23.50
2018-09-14T07:35:45.340Z,22.75
2018-09-14T07:38:15.382Z,23.75
2018-09-14T07:40:51.319Z,22.25
2018-09-14T07:43:23.285Z,22.25
2018-09-14T07:45:52.873Z,22.00
2018-09-14T07:48:22.423Z,23.00
2018-09-14T07:50:53.847Z,24.00
2018-09-14T07:56:23.073Z,21.75
2018-09-14T07:59:22.689Z,23.75
2018-09-14T08:05:27.289Z,22.75
2018-09-14T08:07:57.869Z,23.75
2018-09-14T08:10:30.068Z,23.00
2018-09-14T08:13:22.548Z,22.75
2018-09-14T08:16:01.881Z,24.00
2018-09-14T08:18:39.991Z,23.75
2018-09-14T08:21:13.430Z,25.75
2018-09-14T08:23:48.770Z,23.25
2018-09-14T08:26:32.440Z,26.00
2018-09-14T08:29:09.052Z,24.75
2018-09-14T08:31:40.624Z,24.00
2018-09-14T08:34:12.068Z,23.75
2018-09-14T08:36:45.786Z,23.50
2018-09-14T08:39:16.371Z,23.00
2018-09-14T08:41:46.709Z,24.25
2018-09-14T08:44:18.418Z,23.75
2018-09-14T08:46:47.948Z,23.00
2018-09-14T08:49:19.145Z,23.25
2018-09-14T08:51:51.215Z,22.00
2018-09-14T08:54:22.096Z,23.25
2018-09-14T08:56:51.636Z,24.00
2018-09-14T08:59:27.787Z,23.00
2018-09-14T09:01:58.255Z,24.50
2018-09-14T09:04:30.560Z,24.50
2018-09-14T09:07:01.413Z,23.75
2018-09-14T09:09:31.697Z,23.50
2018-09-14T09:12:02.611Z,24.00
2018-09-14T09:14:32.680Z,23.25
2018-09-14T09:19:46.676Z,23.00
2018-09-14T09:22:17.686Z,24.00
2018-09-14T09:24:48.933Z,22.25
2018-09-14T09:27:21.212Z,23.25
2018-09-14T09:29:52.545Z,24.00
2018-09-14T09:32:27.653Z,23.75
2018-09-14T09:34:56.978Z,23.75
2018-09-14T09:40:41.325Z,24.00
2018-09-14T09:46:09.522Z,22.00
2018-09-14T09:48:39.946Z,24.50
2018-09-14T09:51:09.736Z,25.50
2018-09-14T09:53:40.274Z,22.00
2018-09-14T09:56:12.981Z,25.00
2018-09-14T09:58:43.336Z,24.25
2018-09-14T10:01:18.112Z,23.00
2018-09-14T10:03:55.136Z,23.00
2018-09-14T10:06:28.527Z,24.75
2018-09-14T10:08:59.017Z,22.50
2018-09-14T10:11:29.933Z,22.00
2018-09-14T10:14:01.653Z,21.00
2018-09-14T10:16:35.336Z,21.25
2018-09-14T10:19:05.944Z,21.00
2018-09-14T10:21:36.215Z,22.00
2018-09-14T10:24:10.906Z,21.75
2018-09-14T10:26:42.003Z,19.00
2018-09-14T10:29:12.061Z,19.00
2018-09-14T10:31:42.275Z,19.00
2018-09-14T10:34:13.964Z,19.25
2018-09-14T10:36:43.876Z,22.00
2018-09-14T10:39:17.131Z,18.75
2018-09-14T10:41:50.233Z,19.00
2018-09-14T10:44:20.043Z,19.50
2018-09-14T10:46:51.695Z,16.00
2018-09-14T10:49:24.201Z,19.00
2018-09-14T10:51:54.255Z,16.50
2018-09-14T10:54:25.278Z,17.75
2018-09-14T10:58:01.744Z,15.50
2018-09-14T11:00:41.975Z,19.00
2018-09-14T11:03:11.722Z,18.25
2018-09-14T11:05:46.036Z,18.25
2018-09-14T11:08:17.573Z,16.50
2018-09-14T11:10:47.648Z,19.00
2018-09-14T11:13:21.323Z,19.00
2018-09-14T11:15:52.918Z,18.00
2018-09-14T11:18:25.954Z,19.00
2018-09-14T11:21:01.134Z,16.75
2018-09-14T11:23:31.447Z,18.00
2018-09-14T11:26:02.343Z,19.00
2018-09-14T11:28:33.589Z,17.00
2018-09-14T11:31:09.321Z,16.50
2018-09-14T11:33:40.467Z,17.25
2018-09-14T11:36:13.106Z,19.00
2018-09-14T11:38:43.191Z,19.00
2018-09-14T11:41:14.099Z,18.50
2018-09-14T11:43:45.712Z,15.25
2018-09-14T11:48:54.906Z,16.00
2018-09-14T11:51:34.352Z,17.75
2018-09-14T11:54:09.711Z,18.00
2018-09-14T11:56:46.637Z,16.00
2018-09-14T11:59:17.423Z,13.50
2018-09-14T12:01:53.756Z,12.75
2018-09-14T12:04:24.091Z,12.25
2018-09-14T12:06:58.566Z,11.50
2018-09-14T12:09:28.347Z,12.25
2018-09-14T12:12:02.525Z,10.75
2018-09-14T12:14:37.067Z,13.00
2018-09-14T12:17:10.782Z,13.00
2018-09-14T12:19:46.741Z,9.75
2018-09-14T12:22:20.114Z,13.25
2018-09-14T12:24:53.726Z,12.00
2018-09-14T12:27:26.274Z,14.00
2018-09-14T12:32:47.584Z,14.00
2018-09-14T12:35:25.169Z,15.00
2018-09-14T12:37:54.959Z,14.50
2018-09-14T12:40:28.024Z,14.25
2018-09-14T12:43:01.000Z,15.00
2018-09-14T12:45:39.587Z,14.25
2018-09-14T12:48:12.349Z,13.25
2018-09-14T12:50:44.313Z,16.00
2018-09-14T12:53:16.098Z,14.50
2018-09-14T12:55:47.345Z,15.25
2018-09-14T12:58:19.733Z,14.25
2018-09-14T13:00:50.396Z,13.50
2018-09-14T13:03:25.066Z,13.25
2018-09-14T13:05:54.952Z,12.75
2018-09-14T13:08:24.817Z,11.25
2018-09-14T13:10:54.665Z,13.00
2018-09-14T13:13:26.248Z,14.25
2018-09-14T13:15:55.996Z,13.25
2018-09-14T13:18:26.866Z,13.00
2018-09-14T13:20:56.388Z,14.00
2018-09-14T13:23:35.902Z,10.75
2018-09-14T13:26:06.442Z,14.00
2018-09-14T13:28:40.086Z,11.50
2018-09-14T13:31:12.176Z,13.00
2018-09-14T13:33:47.552Z,13.00
2018-09-14T13:36:17.037Z,15.00
2018-09-14T13:38:49.616Z,14.75
2018-09-14T13:41:19.644Z,15.50
2018-09-14T13:44:06.808Z,15.75
2018-09-14T13:46:44.669Z,15.00
2018-09-14T13:49:14.710Z,15.75
2018-09-14T13:51:54.832Z,15.25
2018-09-14T13:54:25.309Z,15.75
2018-09-14T13:56:55.491Z,13.00
2018-09-14T13:59:28.713Z,12.25
2018-09-14T14:01:59.213Z,12.00
2018-09-14T14:04:29.536Z,12.75
2018-09-14T14:07:03.264Z,10.00
2018-09-14T14:09:32.809Z,10.00
2018-09-14T14:12:02.629Z,9.50
2018-09-14T14:14:40.515Z,8.00
2018-09-14T14:17:11.330Z,8.25
2018-09-14T14:19:45.015Z,6.75
2018-09-14T14:25:05.601Z,7.75
2018-09-14T14:27:36.150Z,6.75
2018-09-14T14:30:09.447Z,6.00
2018-09-14T14:32:39.590Z,4.50
2018-09-14T14:35:10.782Z,5.50
2018-09-14T14:37:44.885Z,5.50
2018-09-14T14:40:17.422Z,6.00
2018-09-14T14:42:47.923Z,6.50
2018-09-14T14:45:17.507Z,5.00
2018-09-14T14:47:51.098Z,5.00
2018-09-14T14:50:24.726Z,6.75
2018-09-14T14:53:25.988Z,6.75
2018-09-14T14:55:57.107Z,5.75
2018-09-14T14:58:27.191Z,6.00
2018-09-14T15:01:01.208Z,5.00
2018-09-14T15:03:32.025Z,7.00
2018-09-14T15:06:05.308Z,5.75
2018-09-14T15:08:36.140Z,6.75
2018-09-14T15:11:07.896Z,6.75
2018-09-14T15:13:46.168Z,6.25
2018-09-14T15:16:17.825Z,6.25
2018-09-14T15:18:48.298Z,6.75
2018-09-14T15:21:21.594Z,6.75
2018-09-14T15:23:56.398Z,6.75
2018-09-14T15:26:28.666Z,5.25
2018-09-14T15:29:02.354Z,7.00
2018-09-14T15:31:34.192Z,7.00
2018-09-14T15:34:06.085Z,7.00
2018-09-14T15:36:39.536Z,8.50
2018-09-14T15:39:15.061Z,7.00
2018-09-14T15:41:44.581Z,6.75
2018-09-14T15:44:14.088Z,8.00
2018-09-14T15:46:44.216Z,8.00
2018-09-14T15:49:17.840Z,7.50
2018-09-14T15:51:48.695Z,9.50
2018-09-14T15:54:44.974Z,7.75
2018-09-14T15:57:14.740Z,10.00
2018-09-14T15:59:47.733Z,7.75
2018-09-14T16:02:57.433Z,9.00
2018-09-14T16:05:29.126Z,9.50
2018-09-14T16:07:59.520Z,8.25
2018-09-14T16:10:36.453Z,9.00
2018-09-14T16:13:05.986Z,8.50
2018-09-14T16:15:35.727Z,9.00
2018-09-14T16:18:06.502Z,9.00
2018-09-14T16:20:35.971Z,8.00
2018-09-14T16:23:06.560Z,9.00
2018-09-14T16:25:37.154Z,8.50
2018-09-14T16:28:06.903Z,10.00
2018-09-14T16:30:37.869Z,8.00
2018-09-14T16:33:07.346Z,10.00
2018-09-14T16:35:40.307Z,11.00
2018-09-14T16:38:10.979Z,8.50
2018-09-14T16:40:45.388Z,10.00
2018-09-14T16:43:18.242Z,10.00
2018-09-14T16:45:51.159Z,7.75
2018-09-14T16:48:23.307Z,10.50
2018-09-14T16:50:54.974Z,8.50
2018-09-14T16:53:24.636Z,8.50
2018-09-14T16:56:01.729Z,8.00
2018-09-14T16:58:32.368Z,9.00
2018-09-14T17:01:06.714Z,7.25
2018-09-14T17:03:38.671Z,7.75
2018-09-14T17:06:14.656Z,8.00
2018-09-14T17:08:45.672Z,8.00
2018-09-14T17:11:18.329Z,8.00
2018-09-14T17:13:51.048Z,8.50
2018-09-14T17:16:42.418Z,7.75
2018-09-14T17:19:19.918Z,8.75
2018-09-14T17:21:51.609Z,7.00
2018-09-14T17:24:25.510Z,6.50
2018-09-14T17:26:59.007Z,9.00
2018-09-14T17:29:35.406Z,8.75
2018-09-14T17:32:08.896Z,10.00
2018-09-14T17:34:44.467Z,8.25
2018-09-14T17:37:23.437Z,7.75
2018-09-14T17:39:54.460Z,8.00
2018-09-14T17:42:28.479Z,7.00
2018-09-14T17:45:10.308Z,8.00
2018-09-14T17:47:43.096Z,7.75
2018-09-14T17:53:20.280Z,11.75
2018-09-14T17:55:50.279Z,7.50
2018-09-14T17:58:21.807Z,6.50
2018-09-14T18:00:59.889Z,8.50
2018-09-14T18:03:29.985Z,8.75
2018-09-14T18:06:13.873Z,7.00
2018-09-14T18:08:46.842Z,8.00
2018-09-14T18:11:21.474Z,9.00
2018-09-14T18:13:55.130Z,8.25
2018-09-14T18:16:48.589Z,9.00
2018-09-14T18:19:21.435Z,10.75
2018-09-14T18:21:51.790Z,9.50
2018-09-14T18:24:32.161Z,10.25
2018-09-14T18:27:04.737Z,8.00
2018-09-14T18:29:36.410Z,9.50
2018-09-14T18:32:11.287Z,9.00
2018-09-14T18:34:43.200Z,9.00
2018-09-14T18:37:15.771Z,9.00
2018-09-14T18:39:47.217Z,8.00
2018-09-14T18:44:55.189Z,10.75
2018-09-14T18:47:26.462Z,10.75
2018-09-14T18:50:00.638Z,9.75
2018-09-14T18:52:33.811Z,11.50
2018-09-14T18:55:07.792Z,13.75
2018-09-14T18:57:46.567Z,13.75
2018-09-14T19:00:22.670Z,12.00
2018-09-14T19:02:54.605Z,12.00
2018-09-14T19:05:30.893Z,14.25
2018-09-14T19:08:02.502Z,15.75
2018-09-14T19:10:39.475Z,14.00
2018-09-14T19:13:11.679Z,13.00
2018-09-14T19:15:43.498Z,13.75
2018-09-14T19:18:41.289Z,15.00
2018-09-14T19:21:11.196Z,15.00
2018-09-14T19:23:44.482Z,14.25
2018-09-14T19:26:18.719Z,13.75
2018-09-14T19:28:49.685Z,13.25
2018-09-14T19:31:21.693Z,12.50
2018-09-14T19:34:00.852Z,11.50
2018-09-14T19:36:37.395Z,13.50
2018-09-14T19:39:18.170Z,11.00
2018-09-14T19:42:01.559Z,14.50
2018-09-14T19:44:32.557Z,14.00
2018-09-14T19:47:03.026Z,15.50
2018-09-14T19:49:34.000Z,12.50
2018-09-14T19:52:04.598Z,16.00
2018-09-14T19:54:37.231Z,14.00
2018-09-14T19:57:09.303Z,16.75
2018-09-14T19:59:49.796Z,13.00
2018-09-14T20:02:25.370Z,13.50
2018-09-14T20:05:03.449Z,17.25
2018-09-14T20:07:35.941Z,13.25
2018-09-14T20:10:06.215Z,15.25
2018-09-14T20:12:38.861Z,15.00
2018-09-14T20:15:15.545Z,14.00
2018-09-14T20:17:50.753Z,13.00
2018-09-14T20:20:22.555Z,14.50
2018-09-14T20:22:54.158Z,15.00
2018-09-14T20:25:24.915Z,14.00
2018-09-14T20:27:56.495Z,15.00
2018-09-14T20:33:20.922Z,13.00
2018-09-14T20:35:53.995Z,13.75
2018-09-14T20:38:24.745Z,14.00
2018-09-14T20:40:58.563Z,14.50
2018-09-14T20:43:30.002Z,15.00
2018-09-14T20:46:03.364Z,13.25
2018-09-14T20:48:41.464Z,13.50
2018-09-14T20:51:12.401Z,14.00
2018-09-14T20:53:44.722Z,15.00
2018-09-14T20:56:15.141Z,15.75
2018-09-14T20:58:44.764Z,15.00
2018-09-14T21:01:14.473Z,15.00
2018-09-14T21:03:45.495Z,15.75
2018-09-14T21:06:19.008Z,15.75
2018-09-14T21:08:52.570Z,14.00
2018-09-14T21:11:28.444Z,15.75
2018-09-14T21:14:01.843Z,16.00
2018-09-14T21:16:32.156Z,14.75
2018-09-14T21:19:04.221Z,17.25
2018-09-14T21:21:34.326Z,17.25
2018-09-14T21:24:05.226Z,14.00
2018-09-14T21:26:36.485Z,12.25
2018-09-14T21:29:09.944Z,13.00
2018-09-14T21:31:47.275Z,11.00
2018-09-14T21:34:24.663Z,11.00
2018-09-14T21:37:01.768Z,10.25
2018-09-14T21:39:34.629Z,10.00
2018-09-14T21:42:05.589Z,11.25
2018-09-14T21:44:37.568Z,9.25
2018-09-14T21:47:12.672Z,11.00
2018-09-14T21:49:44.123Z,11.00
2018-09-14T21:52:13.888Z,10.00
2018-09-14T21:54:54.257Z,11.00
2018-09-14T21:57:23.821Z,10.50
2018-09-14T21:59:53.922Z,9.75
2018-09-14T22:02:27.190Z,9.25
2018-09-14T22:04:57.388Z,9.50
2018-09-14T22:07:26.937Z,11.00
2018-09-14T22:09:56.889Z,11.00
2018-09-14T22:15:09.420Z,11.75
2018-09-14T22:17:41.390Z,10.50
2018-09-14T22:20:13.317Z,11.25
2018-09-14T22:22:44.632Z,10.00
2018-09-14T22:25:16.216Z,10.50
2018-09-14T22:27:47.741Z,10.00
2018-09-14T22:30:20.227Z,11.50
2018-09-14T22:32:50.480Z,9.75
2018-09-14T22:35:22.841Z,11.00
2018-09-14T22:37:52.493Z,10.00
2018-09-14T22:40:22.831Z,10.00
2018-09-14T22:42:56.721Z,10.00
2018-09-14T22:45:26.277Z,9.00
2018-09-14T22:47:57.088Z,9.00
2018-09-14T22:50:27.340Z,10.00
2018-09-14T22:52:56.853Z,9.00
2018-09-14T22:55:27.424Z,7.75
2018-09-14T22:57:58.475Z,9.00
2018-09-14T23:03:20.463Z,7.75
2018-09-14T23:08:32.159Z,8.50
2018-09-14T23:11:11.341Z,5.00
2018-09-14T23:13:44.966Z,7.25
2018-09-14T23:16:15.150Z,7.75
2018-09-14T23:18:46.446Z,9.00
2018-09-14T23:21:17.680Z,11.50
2018-09-14T23:23:47.417Z,10.50
2018-09-14T23:26:19.406Z,12.50
2018-09-14T23:28:49.075Z,14.25
2018-09-14T23:31:19.353Z,12.50
2018-09-14T23:33:50.867Z,11.00
2018-09-14T23:36:20.332Z,9.50
2018-09-14T23:38:50.232Z,10.25
2018-09-14T23:41:20.464Z,10.50
2018-09-14T23:43:51.607Z,10.25
2018-09-14T23:46:21.822Z,10.00
2018-09-14T23:48:52.480Z,10.00
2018-09-14T23:51:21.786Z,8.75
2018-09-14T23:53:53.211Z,10.00
2018-09-14T23:56:22.802Z,9.25
2018-09-14T23:58:55.796Z,9.00
